createdAt,value
2019-03-22T00:02:02.685Z,22.10
2019-03-22T00:04:34.461Z,21.57
2019-03-22T00:07:06.122Z,21.10
2019-03-22T00:09:37.659Z,22.77
2019-03-22T00:12:09.234Z,22.90
2019-03-22T00:14:40.859Z,22.30
2019-03-22T00:17:12.502Z,22.03
2019-03-22T00:19:44.038Z,22.37
2019-03-22T00:22:15.595Z,21.97
2019-03-22T00:24:47.199Z,23.57
2019-03-22T00:27:18.769Z,22.83
2019-03-22T00:29:50.336Z,21.23
2019-03-22T00:32:21.958Z,21.80
2019-03-22T00:34:53.519Z,21.77
2019-03-22T00:37:25.072Z,23.97
2019-03-22T00:39:56.665Z,22.10
2019-03-22T00:42:28.288Z,22.27
2019-03-22T00:44:59.882Z,22.50
2019-03-22T00:47:31.491Z,22.33
2019-03-22T00:50:03.446Z,22.30
2019-03-22T00:52:35.018Z,22.17
2019-03-22T00:55:07.359Z,22.60
2019-03-22T00:57:38.906Z,22.00
2019-03-22T01:00:10.549Z,23.27
2019-03-22T01:02:42.189Z,22.93
2019-03-22T01:05:14.403Z,23.33
2019-03-22T01:07:45.996Z,21.80
2019-03-22T01:10:17.732Z,21.77
2019-03-22T01:12:50.624Z,23.70
2019-03-22T01:15:22.255Z,21.80
2019-03-22T01:17:53.818Z,24.03
2019-03-22T01:20:25.366Z,22.43
2019-03-22T01:22:56.957Z,22.07
2019-03-22T01:25:28.495Z,21.70
2019-03-22T01:28:00.127Z,22.70
2019-03-22T01:30:31.782Z,22.17
2019-03-22T01:33:03.434Z,22.73
2019-03-22T01:35:35.143Z,20.90
2019-03-22T01:38:06.719Z,22.60
2019-03-22T01:40:38.298Z,23.10
2019-03-22T01:43:09.910Z,22.10
2019-03-22T01:45:41.491Z,22.00
2019-03-22T01:48:13.138Z,23.00
2019-03-22T01:50:44.775Z,23.17
2019-03-22T01:53:16.336Z,22.50
2019-03-22T01:55:47.909Z,21.53
2019-03-22T01:58:19.531Z,21.37
2019-03-22T02:00:51.076Z,21.63
2019-03-22T02:03:22.742Z,21.87
2019-03-22T02:05:54.302Z,21.13
2019-03-22T02:08:25.955Z,21.37
2019-03-22T02:10:57.499Z,21.37
2019-03-22T02:13:29.104Z,21.43
2019-03-22T02:16:00.682Z,20.80
2019-03-22T02:18:32.295Z,21.97
2019-03-22T02:21:04.018Z,21.90
2019-03-22T02:23:35.733Z,21.67
2019-03-22T02:26:07.667Z,21.17
2019-03-22T02:28:39.320Z,20.73
2019-03-22T02:31:10.888Z,22.73
2019-03-22T02:33:42.507Z,21.10
2019-03-22T02:36:14.042Z,20.90
2019-03-22T02:38:45.668Z,21.67
2019-03-22T02:41:17.318Z,22.00
2019-03-22T02:43:48.940Z,21.30
2019-03-22T02:46:20.564Z,21.43
2019-03-22T02:48:52.110Z,20.20
2019-03-22T02:51:23.668Z,21.73
2019-03-22T02:53:55.288Z,21.17
2019-03-22T02:56:26.937Z,22.27
2019-03-22T02:58:59.470Z,22.43
2019-03-22T03:01:31.704Z,22.30
2019-03-22T03:04:03.367Z,24.80
2019-03-22T03:06:35.018Z,22.80
2019-03-22T03:09:07.395Z,23.77
2019-03-22T03:11:39.027Z,23.33
2019-03-22T03:14:10.631Z,21.90
2019-03-22T03:16:42.280Z,22.73
2019-03-22T03:19:13.858Z,22.60
2019-03-22T03:21:45.483Z,23.20
2019-03-22T03:24:17.134Z,22.40
2019-03-22T03:26:48.758Z,21.90
2019-03-22T03:29:20.312Z,22.23
2019-03-22T03:31:51.877Z,21.97
2019-03-22T03:34:23.493Z,22.30
2019-03-22T03:36:55.119Z,21.90
2019-03-22T03:39:26.738Z,21.90
2019-03-22T03:41:58.463Z,22.73
2019-03-22T03:44:30.138Z,20.73
2019-03-22T03:47:01.818Z,21.03
2019-03-22T03:49:33.425Z,22.47
2019-03-22T03:52:05.150Z,21.10
2019-03-22T03:54:36.740Z,20.60
2019-03-22T03:57:08.361Z,21.70
2019-03-22T03:59:39.931Z,21.13
2019-03-22T04:02:11.630Z,20.53
2019-03-22T04:04:43.271Z,19.80
2019-03-22T04:07:14.889Z,20.37
2019-03-22T04:09:46.507Z,22.20
2019-03-22T04:12:18.057Z,21.37
2019-03-22T04:14:49.710Z,21.80
2019-03-22T04:17:21.325Z,20.30
2019-03-22T04:19:52.964Z,21.03
2019-03-22T04:22:24.590Z,20.33
2019-03-22T04:24:56.245Z,20.53
2019-03-22T04:27:27.801Z,20.33
2019-03-22T04:29:59.457Z,20.63
2019-03-22T04:32:31.083Z,20.33
2019-03-22T04:35:03.143Z,20.07
2019-03-22T04:37:34.750Z,20.10
2019-03-22T04:40:18.423Z,20.90
2019-03-22T04:42:49.996Z,19.57
2019-03-22T04:45:21.978Z,21.23
2019-03-22T04:47:59.090Z,20.77
2019-03-22T04:50:33.099Z,20.87
2019-03-22T04:53:05.219Z,20.27
2019-03-22T04:55:38.610Z,21.10
2019-03-22T04:58:11.825Z,20.60
2019-03-22T05:00:44.095Z,21.23
2019-03-22T05:03:16.684Z,20.40
2019-03-22T05:05:50.474Z,20.67
2019-03-22T05:08:23.255Z,20.77
2019-03-22T05:10:56.055Z,21.27
2019-03-22T05:13:28.819Z,19.93
2019-03-22T05:16:00.842Z,20.37
2019-03-22T05:18:35.036Z,20.23
2019-03-22T05:21:08.566Z,20.77
2019-03-22T05:23:41.189Z,20.83
2019-03-22T05:26:16.651Z,20.67
2019-03-22T05:28:48.775Z,20.80
2019-03-22T05:31:35.211Z,23.00
2019-03-22T05:34:06.863Z,22.23
2019-03-22T05:36:38.401Z,20.67
2019-03-22T05:39:10.715Z,22.30
2019-03-22T05:41:42.322Z,20.90
2019-03-22T05:44:13.876Z,21.70
2019-03-22T05:46:45.443Z,22.10
2019-03-22T05:49:16.990Z,20.40
2019-03-22T05:51:48.720Z,21.80
2019-03-22T05:54:21.408Z,20.17
2019-03-22T05:56:52.967Z,21.00
2019-03-22T05:59:24.599Z,21.47
2019-03-22T06:01:56.247Z,21.20
2019-03-22T06:04:27.954Z,22.47
2019-03-22T06:06:59.711Z,21.40
2019-03-22T06:09:31.334Z,23.57
2019-03-22T06:12:02.907Z,23.50
2019-03-22T06:14:34.553Z,20.97
2019-03-22T06:17:06.129Z,20.00
2019-03-22T06:19:37.763Z,20.20
2019-03-22T06:22:09.322Z,21.43
2019-03-22T06:24:40.932Z,20.60
2019-03-22T06:27:12.574Z,20.50
2019-03-22T06:29:53.747Z,19.80
2019-03-22T06:32:17.831Z,20.27
2019-03-22T06:34:49.412Z,20.40
2019-03-22T06:37:21.085Z,21.90
2019-03-22T06:39:53.680Z,19.53
2019-03-22T06:42:25.256Z,21.20
2019-03-22T06:44:56.812Z,22.60
2019-03-22T06:47:28.564Z,27.23
2019-03-22T06:50:00.438Z,30.77
2019-03-22T06:52:33.068Z,27.03
2019-03-22T06:55:05.572Z,25.27
2019-03-22T06:57:37.139Z,25.00
2019-03-22T07:00:09.391Z,24.70
2019-03-22T07:02:41.044Z,25.00
2019-03-22T07:05:13.792Z,25.53
2019-03-22T07:07:45.559Z,21.77
2019-03-22T07:10:17.208Z,23.80
2019-03-22T07:12:48.770Z,24.20
2019-03-22T07:15:20.343Z,24.17
2019-03-22T07:17:52.106Z,23.00
2019-03-22T07:20:23.747Z,21.17
2019-03-22T07:22:55.319Z,23.40
2019-03-22T07:25:27.008Z,20.70
2019-03-22T07:27:58.755Z,21.87
2019-03-22T07:30:30.327Z,22.43
2019-03-22T07:33:02.042Z,22.50
2019-03-22T07:35:33.687Z,23.10
2019-03-22T07:38:05.444Z,23.57
2019-03-22T07:40:36.985Z,23.07
2019-03-22T07:43:08.544Z,23.27
2019-03-22T07:45:40.219Z,24.90
2019-03-22T07:48:11.868Z,22.53
2019-03-22T07:50:43.559Z,23.13
2019-03-22T07:53:15.228Z,28.30
2019-03-22T07:55:46.825Z,29.03
2019-03-22T07:58:18.551Z,26.80
2019-03-22T08:00:50.153Z,22.67
2019-03-22T08:03:22.454Z,23.27
2019-03-22T08:05:54.123Z,23.80
2019-03-22T08:08:28.591Z,22.43
2019-03-22T08:11:00.230Z,22.80
2019-03-22T08:13:31.916Z,22.80
2019-03-22T08:16:03.656Z,22.60
2019-03-22T08:18:35.623Z,23.53
2019-03-22T08:21:07.334Z,21.57
2019-03-22T08:23:39.048Z,22.93
2019-03-22T08:26:10.628Z,22.40
2019-03-22T08:28:42.265Z,22.90
2019-03-22T08:31:13.960Z,22.37
2019-03-22T08:33:45.562Z,22.83
2019-03-22T08:36:17.272Z,23.03
2019-03-22T08:38:50.060Z,23.57
2019-03-22T08:41:23.868Z,24.50
2019-03-22T08:43:54.963Z,22.33
2019-03-22T08:46:26.629Z,24.03
2019-03-22T08:48:58.890Z,22.70
2019-03-22T08:51:31.940Z,22.60
2019-03-22T08:54:03.494Z,22.80
2019-03-22T08:56:36.217Z,23.33
2019-03-22T08:59:07.972Z,22.60
2019-03-22T09:01:39.682Z,23.70
2019-03-22T09:04:11.316Z,23.70
2019-03-22T09:06:42.920Z,22.73
2019-03-22T09:09:14.510Z,23.00
2019-03-22T09:11:46.338Z,23.67
2019-03-22T09:14:18.104Z,22.33
2019-03-22T09:16:49.772Z,22.23
2019-03-22T09:19:21.343Z,21.70
2019-03-22T09:21:53.035Z,23.17
2019-03-22T09:24:24.657Z,23.20
2019-03-22T09:26:56.307Z,23.47
2019-03-22T09:29:27.976Z,22.30
2019-03-22T09:31:59.626Z,24.00
2019-03-22T09:34:33.924Z,23.60
2019-03-22T09:37:04.482Z,22.90
2019-03-22T09:39:36.146Z,24.70
2019-03-22T09:42:08.729Z,22.80
2019-03-22T09:44:44.521Z,23.63
2019-03-22T09:47:16.424Z,23.60
2019-03-22T09:49:47.144Z,23.30
2019-03-22T09:52:18.799Z,24.63
2019-03-22T09:54:50.431Z,23.70
2019-03-22T09:57:22.087Z,23.40
2019-03-22T09:59:53.761Z,23.90
2019-03-22T10:02:25.423Z,22.20
2019-03-22T10:05:01.120Z,24.57
2019-03-22T10:07:33.778Z,23.70
2019-03-22T10:10:06.263Z,24.67
2019-03-22T10:12:37.839Z,22.63
2019-03-22T10:15:09.641Z,23.70
2019-03-22T10:17:41.295Z,24.10
2019-03-22T10:20:12.974Z,23.77
2019-03-22T10:22:44.620Z,23.47
2019-03-22T10:25:16.229Z,22.70
2019-03-22T10:27:47.798Z,23.40
2019-03-22T10:30:20.867Z,22.57
2019-03-22T10:32:52.452Z,23.17
2019-03-22T10:35:26.258Z,23.50
2019-03-22T10:38:00.968Z,23.50
2019-03-22T10:40:30.702Z,22.77
2019-03-22T10:43:02.388Z,21.97
2019-03-22T10:45:35.022Z,23.37
2019-03-22T10:48:06.633Z,22.03
2019-03-22T10:50:38.296Z,21.90
2019-03-22T10:53:09.947Z,21.13
2019-03-22T10:55:41.551Z,21.90
2019-03-22T10:58:20.963Z,21.60
2019-03-22T11:00:46.495Z,22.50
2019-03-22T11:03:18.067Z,19.90
2019-03-22T11:05:49.714Z,18.50
2019-03-22T11:08:21.263Z,18.03
2019-03-22T11:10:52.904Z,16.73
2019-03-22T11:13:24.465Z,18.37
2019-03-22T11:15:56.201Z,16.67
2019-03-22T11:18:37.008Z,17.50
2019-03-22T11:21:05.165Z,17.80
2019-03-22T11:23:34.417Z,17.87
2019-03-22T11:26:06.220Z,19.83
2019-03-22T11:28:37.872Z,19.00
2019-03-22T11:31:09.510Z,18.50
2019-03-22T11:33:41.318Z,19.00
2019-03-22T11:36:12.982Z,18.13
2019-03-22T11:38:44.607Z,17.70
2019-03-22T11:41:16.230Z,18.80
2019-03-22T11:43:47.851Z,20.23
2019-03-22T11:46:19.499Z,18.67
2019-03-22T11:48:51.092Z,18.67
2019-03-22T11:51:22.755Z,16.23
2019-03-22T11:53:54.404Z,16.60
2019-03-22T11:56:26.075Z,17.27
2019-03-22T11:58:57.700Z,19.43
2019-03-22T12:01:29.379Z,16.87
2019-03-22T12:04:01.011Z,17.60
2019-03-22T12:06:32.859Z,16.00
2019-03-22T12:09:09.161Z,14.97
2019-03-22T12:11:42.157Z,15.17
2019-03-22T12:14:14.072Z,16.70
2019-03-22T12:16:45.820Z,13.67
2019-03-22T12:19:17.876Z,18.27
2019-03-22T12:21:49.663Z,19.03
2019-03-22T12:24:21.338Z,18.80
2019-03-22T12:26:52.900Z,16.33
2019-03-22T12:29:24.563Z,17.50
2019-03-22T12:31:56.266Z,16.90
2019-03-22T12:34:29.650Z,17.03
2019-03-22T12:37:01.292Z,17.87
2019-03-22T12:39:32.855Z,17.90
2019-03-22T12:42:04.579Z,18.53
2019-03-22T12:44:36.317Z,17.47
2019-03-22T12:47:08.032Z,18.90
2019-03-22T12:49:39.610Z,19.20
2019-03-22T12:52:11.262Z,18.90
2019-03-22T12:54:43.900Z,18.17
2019-03-22T12:57:15.548Z,17.83
2019-03-22T12:59:47.117Z,17.63
2019-03-22T13:02:18.758Z,19.90
2019-03-22T13:04:50.343Z,18.83
2019-03-22T13:07:21.986Z,19.00
2019-03-22T13:09:53.663Z,17.70
2019-03-22T13:12:25.323Z,17.93
2019-03-22T13:14:56.910Z,18.53
2019-03-22T13:17:28.555Z,19.10
2019-03-22T13:20:00.339Z,19.60
2019-03-22T13:22:33.268Z,19.50
2019-03-22T13:25:05.834Z,20.97
2019-03-22T13:27:37.710Z,20.40
2019-03-22T13:30:09.855Z,19.37
2019-03-22T13:32:41.584Z,21.63
2019-03-22T13:35:13.251Z,22.03
2019-03-22T13:37:44.847Z,19.80
2019-03-22T13:40:16.579Z,19.47
2019-03-22T13:42:48.239Z,20.47
2019-03-22T13:45:19.996Z,18.87
2019-03-22T13:47:51.601Z,19.20
2019-03-22T13:50:23.419Z,19.87
2019-03-22T13:52:55.546Z,17.07
2019-03-22T13:55:27.307Z,20.60
2019-03-22T13:57:59.050Z,20.20
2019-03-22T14:00:30.727Z,19.83
2019-03-22T14:03:02.993Z,19.70
2019-03-22T14:05:35.181Z,19.90
2019-03-22T14:08:07.175Z,20.07
2019-03-22T14:10:38.830Z,20.80
2019-03-22T14:13:10.565Z,19.17
2019-03-22T14:15:42.195Z,19.70
2019-03-22T14:18:13.796Z,18.90
2019-03-22T14:20:45.476Z,19.57
2019-03-22T14:23:17.130Z,17.53
2019-03-22T14:25:48.709Z,18.87
2019-03-22T14:28:20.453Z,18.00
2019-03-22T14:30:52.155Z,18.37
2019-03-22T14:33:23.809Z,18.47
2019-03-22T14:35:55.462Z,18.80
2019-03-22T14:38:27.122Z,18.00
2019-03-22T14:40:58.692Z,17.60
2019-03-22T14:43:30.274Z,18.70
2019-03-22T14:46:01.866Z,18.33
2019-03-22T14:48:33.526Z,17.97
2019-03-22T14:51:05.111Z,17.90
2019-03-22T14:53:36.678Z,18.50
2019-03-22T14:56:08.404Z,17.83
2019-03-22T14:58:39.957Z,18.57
2019-03-22T15:01:11.616Z,17.80
2019-03-22T15:03:43.265Z,18.17
2019-03-22T15:06:14.852Z,18.63
2019-03-22T15:08:46.566Z,19.20
2019-03-22T15:11:18.156Z,18.63
2019-03-22T15:14:03.918Z,20.30
2019-03-22T15:17:06.724Z,19.73
2019-03-22T15:19:51.721Z,17.80
2019-03-22T15:22:50.786Z,19.43
2019-03-22T15:25:40.413Z,18.60
2019-03-22T15:28:46.374Z,19.00
2019-03-22T15:31:40.123Z,18.40
2019-03-22T15:34:28.430Z,18.47
2019-03-22T15:37:31.275Z,17.97
2019-03-22T15:40:03.797Z,18.30
2019-03-22T15:42:35.443Z,17.70
2019-03-22T15:45:09.153Z,17.97
2019-03-22T15:47:40.958Z,18.57
2019-03-22T15:50:14.208Z,18.97
2019-03-22T15:52:45.956Z,18.67
2019-03-22T15:55:17.592Z,17.90
2019-03-22T15:57:49.169Z,19.70
2019-03-22T16:00:20.744Z,17.93
2019-03-22T16:02:52.311Z,20.17
2019-03-22T16:05:23.887Z,21.23
2019-03-22T16:07:55.444Z,20.97
2019-03-22T16:10:27.042Z,22.37
2019-03-22T16:12:58.759Z,20.70
2019-03-22T16:15:30.418Z,19.47
2019-03-22T16:18:02.123Z,19.90
2019-03-22T16:20:33.792Z,20.00
2019-03-22T16:23:05.701Z,21.67
2019-03-22T16:25:37.345Z,22.80
2019-03-22T16:28:08.958Z,24.47
2019-03-22T16:30:40.539Z,24.00
2019-03-22T16:33:12.180Z,26.50
2019-03-22T16:35:43.802Z,26.90
2019-03-22T16:38:15.527Z,26.90
2019-03-22T16:40:47.162Z,27.00
2019-03-22T16:43:19.903Z,27.00
2019-03-22T16:45:51.464Z,26.83
2019-03-22T16:48:23.122Z,27.97
2019-03-22T16:50:54.690Z,27.53
2019-03-22T16:53:26.365Z,26.60
2019-03-22T16:55:58.008Z,26.60
2019-03-22T16:58:30.634Z,28.50
2019-03-22T17:01:03.541Z,27.80
2019-03-22T17:03:35.609Z,29.17
2019-03-22T17:06:07.636Z,27.50
2019-03-22T17:08:39.365Z,29.67
2019-03-22T17:11:10.947Z,24.60
2019-03-22T17:13:42.495Z,29.10
2019-03-22T17:16:14.076Z,27.80
2019-03-22T17:18:45.778Z,30.30
2019-03-22T17:21:17.445Z,27.23
2019-03-22T17:23:49.335Z,26.33
2019-03-22T17:26:21.006Z,27.83
2019-03-22T17:28:52.603Z,28.77
2019-03-22T17:31:24.191Z,29.70
2019-03-22T17:33:56.914Z,28.30
2019-03-22T17:36:28.478Z,28.20
2019-03-22T17:39:00.203Z,28.20
2019-03-22T17:41:31.834Z,28.30
2019-03-22T17:44:04.771Z,28.50
2019-03-22T17:46:36.330Z,30.00
2019-03-22T17:49:07.905Z,29.87
2019-03-22T17:51:39.483Z,24.60
2019-03-22T17:54:11.348Z,24.40
2019-03-22T17:56:44.379Z,24.73
2019-03-22T17:59:15.953Z,23.27
2019-03-22T18:01:47.704Z,23.23
2019-03-22T18:04:24.137Z,22.50
2019-03-22T18:06:52.579Z,23.67
2019-03-22T18:09:24.172Z,20.60
2019-03-22T18:11:55.828Z,21.70
2019-03-22T18:14:28.528Z,22.23
2019-03-22T18:17:00.110Z,23.50
2019-03-22T18:19:32.688Z,19.47
2019-03-22T18:22:05.380Z,23.30
2019-03-22T18:24:36.989Z,22.17
2019-03-22T18:27:08.835Z,20.60
2019-03-22T18:29:40.571Z,23.47
2019-03-22T18:32:12.308Z,21.47
2019-03-22T18:34:44.058Z,21.27
2019-03-22T18:37:15.623Z,22.53
2019-03-22T18:39:47.426Z,21.37
2019-03-22T18:42:19.175Z,22.30
2019-03-22T18:44:50.760Z,22.07
2019-03-22T18:47:23.517Z,23.07
2019-03-22T18:49:55.119Z,22.80
2019-03-22T18:52:26.792Z,20.47
2019-03-22T18:54:58.485Z,21.80
2019-03-22T18:57:30.124Z,23.80
2019-03-22T19:00:01.880Z,23.10
2019-03-22T19:02:33.887Z,22.83
2019-03-22T19:05:06.345Z,24.73
2019-03-22T19:07:38.023Z,24.50
2019-03-22T19:10:10.436Z,23.23
2019-03-22T19:12:42.209Z,22.80
2019-03-22T19:15:15.010Z,27.83
2019-03-22T19:17:46.688Z,24.93
2019-03-22T19:20:18.499Z,27.03
2019-03-22T19:22:50.167Z,23.27
2019-03-22T19:25:21.931Z,24.57
2019-03-22T19:27:54.646Z,24.40
2019-03-22T19:30:26.471Z,24.00
2019-03-22T19:32:58.203Z,21.87
2019-03-22T19:35:29.784Z,23.23
2019-03-22T19:38:01.455Z,25.20
2019-03-22T19:40:33.044Z,24.50
2019-03-22T19:43:04.816Z,25.03
2019-03-22T19:45:36.467Z,26.43
2019-03-22T19:48:08.130Z,23.13
2019-03-22T19:50:39.899Z,24.50
2019-03-22T19:53:11.632Z,22.53
2019-03-22T19:55:43.399Z,20.93
2019-03-22T19:58:15.100Z,19.60
2019-03-22T20:00:46.855Z,18.93
2019-03-22T20:03:18.483Z,18.93
2019-03-22T20:05:50.101Z,17.90
2019-03-22T20:08:21.794Z,17.43
2019-03-22T20:10:53.423Z,17.60
2019-03-22T20:13:25.001Z,17.43
2019-03-22T20:15:56.639Z,17.77
2019-03-22T20:18:29.259Z,16.50
2019-03-22T20:21:01.010Z,17.73
2019-03-22T20:23:32.679Z,17.00
2019-03-22T20:26:04.330Z,16.77
2019-03-22T20:28:35.983Z,18.03
2019-03-22T20:31:07.569Z,19.60
2019-03-22T20:33:39.200Z,19.30
2019-03-22T20:36:10.957Z,18.67
2019-03-22T20:38:43.756Z,18.93
2019-03-22T20:41:15.399Z,18.73
2019-03-22T20:43:47.055Z,18.90
2019-03-22T20:46:18.716Z,19.23
2019-03-22T20:48:50.559Z,19.40
2019-03-22T20:51:22.198Z,17.40
2019-03-22T20:53:53.877Z,19.93
2019-03-22T20:56:25.526Z,20.67
2019-03-22T20:58:57.114Z,18.13
2019-03-22T21:01:28.758Z,21.30
2019-03-22T21:04:00.526Z,20.23
2019-03-22T21:06:32.184Z,19.90
2019-03-22T21:09:05.546Z,21.27
2019-03-22T21:11:37.180Z,20.07
2019-03-22T21:14:08.808Z,19.33
2019-03-22T21:16:40.620Z,17.70
2019-03-22T21:19:12.255Z,17.83
2019-03-22T21:21:43.852Z,18.07
2019-03-22T21:24:15.490Z,19.47
2019-03-22T21:26:48.081Z,16.20
2019-03-22T21:29:19.781Z,16.63
2019-03-22T21:31:51.423Z,17.90
2019-03-22T21:34:23.108Z,18.07
2019-03-22T21:36:55.926Z,17.80
2019-03-22T21:39:27.663Z,18.43
2019-03-22T21:41:59.415Z,18.40
2019-03-22T21:44:31.041Z,18.27
2019-03-22T21:47:02.776Z,18.30
2019-03-22T21:49:34.520Z,16.50
2019-03-22T21:52:06.327Z,18.73
2019-03-22T21:54:38.926Z,17.87
2019-03-22T21:57:10.511Z,18.50
2019-03-22T21:59:42.078Z,18.77
2019-03-22T22:02:13.720Z,18.13
2019-03-22T22:04:45.456Z,17.80
2019-03-22T22:07:17.017Z,19.40
2019-03-22T22:09:48.665Z,19.50
2019-03-22T22:12:20.271Z,19.53
2019-03-22T22:14:51.836Z,19.60
2019-03-22T22:17:23.977Z,19.80
2019-03-22T22:19:55.625Z,19.80
2019-03-22T22:22:27.249Z,20.60
2019-03-22T22:24:58.908Z,19.97
2019-03-22T22:27:30.570Z,20.70
2019-03-22T22:30:02.260Z,19.40
2019-03-22T22:32:35.174Z,19.70
2019-03-22T22:35:07.779Z,19.53
2019-03-22T22:37:39.847Z,19.47
2019-03-22T22:40:11.828Z,18.90
2019-03-22T22:42:43.487Z,19.00
2019-03-22T22:45:15.111Z,19.47
2019-03-22T22:47:46.732Z,19.37
2019-03-22T22:50:19.199Z,18.33
2019-03-22T22:52:50.865Z,18.90
2019-03-22T22:55:22.543Z,19.00
2019-03-22T22:57:54.186Z,18.20
2019-03-22T23:00:27.845Z,18.73
2019-03-22T23:03:01.030Z,18.80
2019-03-22T23:05:32.703Z,20.23
2019-03-22T23:08:04.602Z,19.00
2019-03-22T23:10:36.359Z,20.97
2019-03-22T23:13:07.913Z,20.90
2019-03-22T23:15:39.568Z,20.90
2019-03-22T23:18:11.127Z,20.47
2019-03-22T23:20:42.831Z,21.10
2019-03-22T23:23:14.435Z,21.40
2019-03-22T23:25:46.137Z,20.50
2019-03-22T23:28:17.750Z,21.43
2019-03-22T23:30:50.551Z,21.30
2019-03-22T23:33:23.273Z,22.17
2019-03-22T23:35:54.959Z,21.50
2019-03-22T23:38:26.577Z,22.30
2019-03-22T23:40:58.230Z,22.73
2019-03-22T23:43:29.898Z,23.97
2019-03-22T23:46:01.552Z,22.33
2019-03-22T23:48:33.207Z,23.00
2019-03-22T23:51:04.861Z,22.87
2019-03-22T23:53:36.466Z,22.47
2019-03-22T23:56:08.039Z,19.53
2019-03-22T23:58:39.616Z,21.67
